TimeEST,TemperatureF,Dew PointF,Humidity,Sea Level PressureIn,VisibilityMPH,Wind Direction,Wind SpeedMPH,Gust SpeedMPH,PrecipitationIn,Events,Conditions,WindDirDegrees,DateUTC
12:36 AM,46.4,42.8,87,30.21,7.0,SE,4.6,-,0.01,Rain,Light Rain,130,2013-11-16 05:36:00
12:51 AM,46.0,43.0,89,30.19,10.0,SE,4.6,-,0.01,,Overcast,130,2013-11-16 05:51:00
1:08 AM,46.4,42.8,87,30.20,9.0,East,3.5,-,N/A,,Overcast,100,2013-11-16 06:08:00
1:20 AM,46.4,42.8,87,30.20,8.0,East,3.5,-,N/A,,Overcast,90,2013-11-16 06:20:00
1:36 AM,46.4,42.8,87,30.19,10.0,ESE,4.6,-,N/A,,Overcast,110,2013-11-16 06:36:00
1:51 AM,46.0,43.0,89,30.19,10.0,ESE,4.6,-,N/A,,Overcast,120,2013-11-16 06:51:00
2:51 AM,46.9,43.0,86,30.18,10.0,SE,8.1,-,N/A,,Overcast,140,2013-11-16 07:51:00
3:06 AM,46.4,42.8,87,30.19,10.0,SE,8.1,-,N/A,,Overcast,140,2013-11-16 08:06:00
3:51 AM,46.9,43.0,86,30.18,10.0,SE,6.9,-,N/A,,Overcast,130,2013-11-16 08:51:00
4:51 AM,46.0,43.0,89,30.18,10.0,ESE,9.2,-,N/A,,Overcast,120,2013-11-16 09:51:00
5:05 AM,46.4,42.8,87,30.18,10.0,SE,8.1,-,N/A,,Scattered Clouds,130,2013-11-16 10:05:00
5:51 AM,46.0,43.0,89,30.19,10.0,SE,3.5,-,N/A,,Mostly Cloudy,130,2013-11-16 10:51:00
6:51 AM,46.0,43.0,89,30.21,10.0,ESE,6.9,-,N/A,,Overcast,120,2013-11-16 11:51:00
7:51 AM,46.9,43.0,86,30.23,10.0,SE,6.9,-,0.00,,Overcast,140,2013-11-16 12:51:00
8:51 AM,48.9,45.0,86,30.24,10.0,SE,5.8,-,N/A,,Overcast,140,2013-11-16 13:51:00
9:51 AM,53.1,46.9,80,30.24,10.0,SSE,5.8,-,N/A,,Mostly Cloudy,150,2013-11-16 14:51:00
10:51 AM,55.9,48.0,75,30.24,10.0,Variable,4.6,-,N/A,,Clear,0,2013-11-16 15:51:00
11:51 AM,59.0,48.0,67,30.21,10.0,Calm,Calm,-,N/A,,Overcast,0,2013-11-16 16:51:00
12:51 PM,59.0,48.0,67,30.18,10.0,South,6.9,-,N/A,,Mostly Cloudy,180,2013-11-16 17:51:00
1:51 PM,57.9,48.0,70,30.16,10.0,SE,6.9,-,N/A,,Mostly Cloudy,140,2013-11-16 18:51:00
2:51 PM,57.9,46.9,67,30.15,10.0,SE,10.4,-,N/A,,Mostly Cloudy,140,2013-11-16 19:51:00
3:51 PM,55.0,46.9,74,30.15,10.0,SSE,10.4,-,N/A,,Clear,160,2013-11-16 20:51:00
4:51 PM,54.0,46.9,77,30.15,10.0,SSE,8.1,-,N/A,,Clear,160,2013-11-16 21:51:00
5:51 PM,52.0,46.9,83,30.16,10.0,South,10.4,-,N/A,,Clear,170,2013-11-16 22:51:00
6:51 PM,51.1,46.0,83,30.17,10.0,SSE,15.0,-,N/A,,Clear,160,2013-11-16 23:51:00
7:19 PM,50.0,46.4,87,30.16,10.0,SSE,10.4,-,N/A,,Scattered Clouds,160,2013-11-17 00:19:00
7:32 PM,50.0,46.4,87,30.17,10.0,SSE,15.0,20.7,N/A,,Mostly Cloudy,160,2013-11-17 00:32:00
7:51 PM,50.0,46.0,86,30.17,10.0,SSE,11.5,18.4,N/A,,Overcast,150,2013-11-17 00:51:00
8:35 PM,51.8,46.4,82,30.16,10.0,SE,13.8,20.7,N/A,,Scattered Clouds,140,2013-11-17 01:35:00
8:51 PM,51.1,46.0,83,30.16,10.0,SSE,15.0,26.5,N/A,,Partly Cloudy,150,2013-11-17 01:51:00
9:51 PM,51.1,46.0,83,30.14,10.0,SE,12.7,21.9,N/A,,Clear,140,2013-11-17 02:51:00
10:51 PM,50.0,46.0,86,30.13,10.0,SE,11.5,19.6,N/A,,Clear,140,2013-11-17 03:51:00
11:51 PM,50.0,46.0,86,30.11,10.0,SSE,16.1,23.0,N/A,,Partly Cloudy,150,2013-11-17 04:51:00